Time;durP1;ratioP1;P1;durP2;ratioP2;P2;SDS_P1;SDS_P2;PMS_P1;PMS_P2;Temp;Humidity;BMP_temperature;BMP_pressure;BME280_temperature;BME280_humidity;BME280_pressure;Samples;Min_cycle;Max_cycle;Signal;HPM_P1;HPM_P2
2023/03/12 00:02:48;;;;;;;12.10;4.95;;;;;;;3.42;100.00;101081.50;10423665;28;20416;-73
2023/03/12 00:07:49;;;;;;;18.20;5.38;;;;;;;3.39;100.00;101076.44;10416664;28;20037;-73
2023/03/12 00:12:50;;;;;;;7.53;5.63;;;;;;;3.37;100.00;101078.41;10417246;28;20034;-73
2023/03/12 00:17:50;;;;;;;12.85;7.90;;;;;;;3.37;100.00;101063.19;10417226;28;20029;-73
2023/03/12 00:22:50;;;;;;;13.50;6.05;;;;;;;3.40;100.00;101051.34;10415748;28;20029;-74
2023/03/12 00:27:51;;;;;;;10.15;5.75;;;;;;;3.42;100.00;101044.84;10417554;28;20469;-73
2023/03/12 00:32:51;;;;;;;9.63;5.50;;;;;;;3.39;100.00;101052.34;10416637;28;20091;-73
2023/03/12 00:37:52;;;;;;;5.90;5.32;;;;;;;3.42;100.00;101047.53;10416534;28;20041;-73
2023/03/12 00:42:52;;;;;;;8.85;5.35;;;;;;;3.44;100.00;101037.50;10416431;28;20489;-73
2023/03/12 00:47:53;;;;;;;9.98;4.03;;;;;;;3.46;100.00;101024.81;10416887;28;20041;-73
2023/03/12 00:52:53;;;;;;;5.88;4.28;;;;;;;3.52;100.00;101034.09;10416108;28;20033;-72
2023/03/12 00:57:53;;;;;;;13.23;4.80;;;;;;;3.60;100.00;101031.50;10417261;28;20044;-73
2023/03/12 01:02:54;;;;;;;6.30;4.15;;;;;;;3.74;100.00;101040.91;10414707;28;20037;-73
2023/03/12 01:07:54;;;;;;;7.03;4.30;;;;;;;3.80;100.00;101037.63;10414273;28;20187;-73
2023/03/12 01:12:55;;;;;;;5.22;4.10;;;;;;;3.84;100.00;101028.28;10414520;28;20033;-73
2023/03/12 01:17:55;;;;;;;5.82;4.47;;;;;;;3.77;100.00;101016.50;10416420;28;20449;-73
2023/03/12 01:22:55;;;;;;;10.88;5.20;;;;;;;3.69;100.00;101013.72;10417334;28;20053;-73
2023/03/12 01:27:56;;;;;;;5.57;4.00;;;;;;;3.78;100.00;101011.97;10418058;28;20030;-73
2023/03/12 01:32:56;;;;;;;6.80;4.93;;;;;;;3.68;100.00;100990.59;10398970;28;20115;-73
2023/03/12 01:37:57;;;;;;;5.25;4.07;;;;;;;3.71;100.00;100988.47;10413762;28;20080;-72
2023/03/12 01:42:57;;;;;;;5.07;4.28;;;;;;;3.73;100.00;100977.59;10413667;28;20032;-73
2023/03/12 01:47:57;;;;;;;6.90;4.95;;;;;;;3.88;100.00;100967.19;10414796;28;20483;-73
2023/03/12 01:52:58;;;;;;;6.80;4.20;;;;;;;3.87;100.00;100971.72;10418763;28;20469;-73
2023/03/12 01:57:58;;;;;;;6.43;3.72;;;;;;;3.90;100.00;100959.88;10422358;28;20045;-73
2023/03/12 02:03:01;;;;;;;7.70;4.20;;;;;;;3.89;100.00;100947.44;10405622;28;20037;-73
2023/03/12 02:08:01;;;;;;;6.60;4.43;;;;;;;3.93;100.00;100948.84;10421429;28;20116;-73
2023/03/12 02:13:02;;;;;;;5.15;3.85;;;;;;;3.88;100.00;100930.53;10421354;28;20029;-73
2023/03/12 02:18:03;;;;;;;5.30;3.95;;;;;;;3.94;100.00;100931.78;10428733;28;20042;-74
2023/03/12 02:23:23;;;;;;;9.52;3.80;;;;;;;3.86;100.00;100926.31;10422342;28;20046;-73
2023/03/12 02:28:25;;;;;;;4.65;4.25;;;;;;;3.76;100.00;100921.03;10405837;28;20048;-73
2023/03/12 02:33:26;;;;;;;5.35;4.47;;;;;;;3.70;100.00;100918.97;10421531;28;20029;-73
2023/03/12 02:38:43;;;;;;;5.32;4.85;;;;;;;3.62;100.00;100916.22;10420215;28;20056;-73
2023/03/12 02:43:46;;;;;;;8.02;4.90;;;;;;;3.52;100.00;100913.63;10421194;28;20545;-73
2023/03/12 02:48:46;;;;;;;5.75;5.20;;;;;;;3.35;100.00;100899.22;10420603;28;20060;-73
2023/03/12 02:53:49;;;;;;;7.80;4.65;;;;;;;3.22;100.00;100888.88;10419563;28;20045;-72
2023/03/12 02:58:49;;;;;;;7.32;4.90;;;;;;;3.13;100.00;100879.06;10419467;28;20051;-73
2023/03/12 03:03:49;;;;;;;5.38;4.72;;;;;;;3.07;100.00;100878.84;10419493;28;20410;-73
2023/03/12 03:08:50;;;;;;;4.45;3.00;;;;;;;3.16;100.00;100867.19;10420006;28;20433;-72
2023/03/12 03:13:51;;;;;;;7.60;4.72;;;;;;;3.05;100.00;100843.34;10420331;28;20041;-73
2023/03/12 03:18:51;;;;;;;6.30;5.05;;;;;;;2.97;100.00;100838.75;10418792;28;20030;-72
2023/03/12 03:23:52;;;;;;;10.63;4.88;;;;;;;2.97;100.00;100836.09;10418974;28;20061;-72
2023/03/12 03:28:52;;;;;;;6.80;4.65;;;;;;;2.96;100.00;100835.22;10418547;28;20045;-72
2023/03/12 03:33:53;;;;;;;5.95;3.75;;;;;;;3.06;100.00;100827.13;10418987;28;20041;-72
2023/03/12 03:38:53;;;;;;;3.42;3.13;;;;;;;3.08;100.00;100819.81;10418555;28;20043;-72
2023/03/12 03:43:57;;;;;;;7.40;3.55;;;;;;;3.08;100.00;100811.78;10418603;28;20493;-73
2023/03/12 03:48:58;;;;;;;10.35;3.90;;;;;;;3.10;100.00;100803.63;10401289;28;20483;-73
2023/03/12 03:53:59;;;;;;;15.82;5.03;;;;;;;3.12;100.00;100804.28;10418623;28;20041;-73
2023/03/12 03:59:00;;;;;;;14.07;5.80;;;;;;;3.22;100.00;100807.72;10418930;28;20087;-73
2023/03/12 04:04:01;;;;;;;11.02;4.07;;;;;;;3.20;100.00;100782.97;10418225;28;20107;-72
2023/03/12 04:09:02;;;;;;;8.45;5.47;;;;;;;3.10;100.00;100800.94;10417361;28;20111;-73
2023/03/12 04:14:02;;;;;;;14.73;6.93;;;;;;;2.64;100.00;100792.06;10418039;28;20396;-73
2023/03/12 04:19:03;;;;;;;10.35;6.55;;;;;;;2.47;100.00;100793.69;10400490;28;20361;-73
2023/03/12 04:24:03;;;;;;;9.77;6.40;;;;;;;2.40;100.00;100773.91;10418633;28;20550;-72
2023/03/12 04:29:04;;;;;;;12.95;5.50;;;;;;;2.36;100.00;100751.13;10421411;28;20068;-72
2023/03/12 04:34:04;;;;;;;16.00;7.18;;;;;;;2.29;100.00;100729.50;10400704;28;20062;-71
2023/03/12 04:39:06;;;;;;;8.18;6.75;;;;;;;2.20;100.00;100725.91;10418033;28;20059;-71
2023/03/12 04:44:06;;;;;;;9.20;7.50;;;;;;;2.19;100.00;100726.03;10417061;28;20472;-71
2023/03/12 04:49:07;;;;;;;10.93;8.48;;;;;;;2.30;100.00;100736.53;10416509;28;20127;-71
2023/03/12 04:54:07;;;;;;;10.98;6.90;;;;;;;2.29;100.00;100718.81;10414531;28;20175;-71
2023/03/12 04:59:07;;;;;;;10.63;7.22;;;;;;;2.33;100.00;100729.06;10414945;28;20153;-71
2023/03/12 05:04:08;;;;;;;12.38;7.93;;;;;;;2.35;100.00;100728.06;10414901;28;20052;-70
2023/03/12 05:09:08;;;;;;;17.27;8.98;;;;;;;2.39;100.00;100714.25;10414022;28;20477;-71
2023/03/12 05:14:12;;;;;;;18.77;9.75;;;;;;;2.37;100.00;100723.41;10416180;28;20043;-71
2023/03/12 05:19:12;;;;;;;15.70;9.35;;;;;;;2.44;100.00;100720.00;10413696;28;20033;-71
2023/03/12 05:24:14;;;;;;;16.17;9.73;;;;;;;2.44;100.00;100729.84;10414901;28;20187;-71
2023/03/12 05:29:15;;;;;;;15.38;9.93;;;;;;;2.42;100.00;100731.81;10414308;28;20069;-71
2023/03/12 05:34:15;;;;;;;14.05;11.10;;;;;;;2.40;100.00;100734.66;10415738;28;20041;-71
2023/03/12 05:39:15;;;;;;;23.48;10.38;;;;;;;2.38;100.00;100725.94;10416713;28;20129;-70
2023/03/12 05:44:16;;;;;;;10.38;9.25;;;;;;;2.42;100.00;100711.28;10420635;28;20045;-71
2023/03/12 05:49:17;;;;;;;11.10;9.85;;;;;;;2.42;100.00;100703.25;10420730;28;20090;-70
2023/03/12 05:54:17;;;;;;;15.45;11.80;;;;;;;2.45;100.00;100708.31;10419125;28;20021;-71
2023/03/12 05:59:17;;;;;;;15.25;13.00;;;;;;;2.44;100.00;100705.78;10424152;28;20026;-71
2023/03/12 06:04:18;;;;;;;15.20;12.70;;;;;;;2.47;100.00;100710.84;10421061;28;20060;-71
2023/03/12 06:09:18;;;;;;;17.42;12.35;;;;;;;2.55;100.00;100703.75;10403136;28;20066;-71
2023/03/12 06:14:19;;;;;;;17.50;13.10;;;;;;;2.54;100.00;100704.72;10413958;28;20033;-71
2023/03/12 06:19:19;;;;;;;21.38;14.90;;;;;;;2.60;100.00;100689.09;10414814;28;20033;-71
2023/03/12 06:24:20;;;;;;;20.00;15.30;;;;;;;2.66;100.00;100672.44;10434259;28;20049;-71
2023/03/12 06:29:20;;;;;;;21.17;18.23;;;;;;;2.73;100.00;100657.47;10419519;28;20129;-71
2023/03/12 06:34:21;;;;;;;23.08;20.15;;;;;;;2.85;100.00;100655.41;10414022;28;20084;-71
2023/03/12 06:39:21;;;;;;;20.35;16.45;;;;;;;2.94;100.00;100659.84;10421434;28;20025;-72
2023/03/12 06:44:22;;;;;;;22.15;15.73;;;;;;;3.01;100.00;100656.41;10420230;28;20117;-72
2023/03/12 06:49:22;;;;;;;23.10;19.75;;;;;;;3.03;100.00;100649.06;10421412;28;20033;-72
2023/03/12 06:54:23;;;;;;;21.48;16.52;;;;;;;3.08;100.00;100655.78;10422064;28;20068;-72
2023/03/12 06:59:24;;;;;;;21.38;18.85;;;;;;;3.25;100.00;100662.94;10420544;28;20025;-72
2023/03/12 07:04:25;;;;;;;34.53;21.23;;;;;;;3.41;100.00;100660.38;10419368;28;20042;-72
2023/03/12 07:09:25;;;;;;;30.55;23.27;;;;;;;3.49;100.00;100662.28;10419099;28;20122;-72
2023/03/12 07:14:25;;;;;;;32.63;23.38;;;;;;;3.66;100.00;100679.28;10418981;28;20042;-72
2023/03/12 07:19:28;;;;;;;29.98;24.30;;;;;;;3.70;100.00;100667.22;10418675;28;20455;-72
2023/03/12 07:24:29;;;;;;;29.52;20.67;;;;;;;3.78;100.00;100656.59;10418860;28;20053;-72
2023/03/12 07:29:29;;;;;;;25.90;23.13;;;;;;;3.90;100.00;100658.00;10418884;28;20084;-72
2023/03/12 07:34:30;;;;;;;16.38;13.30;;;;;;;4.02;100.00;100660.38;10419331;28;20120;-73
2023/03/12 07:39:30;;;;;;;26.67;23.25;;;;;;;4.20;100.00;100664.63;10418493;28;20033;-73
2023/03/12 07:44:31;;;;;;;33.63;20.67;;;;;;;4.38;100.00;100674.44;10418131;28;20025;-72
2023/03/12 07:49:31;;;;;;;29.58;23.42;;;;;;;4.57;100.00;100673.31;10418583;28;20044;-73
2023/03/12 07:54:32;;;;;;;35.55;25.10;;;;;;;4.72;100.00;100679.69;10417587;28;20124;-73
2023/03/12 07:59:32;;;;;;;29.40;24.20;;;;;;;4.87;100.00;100683.41;10416969;28;20112;-73
2023/03/12 08:04:32;;;;;;;40.00;25.23;;;;;;;5.00;100.00;100690.13;10402406;28;20068;-73
2023/03/12 08:09:33;;;;;;;35.38;25.73;;;;;;;5.12;100.00;100692.31;10417914;28;20403;-71
2023/03/12 08:14:34;;;;;;;37.22;27.40;;;;;;;5.27;100.00;100694.34;10418044;28;20067;-71
2023/03/12 08:19:34;;;;;;;32.75;27.48;;;;;;;5.47;100.00;100689.47;10400293;28;20034;-70
2023/03/12 08:24:35;;;;;;;39.33;26.90;;;;;;;5.64;100.00;100696.47;10417217;28;20092;-70
2023/03/12 08:29:35;;;;;;;35.53;24.85;;;;;;;5.78;100.00;100701.16;10415605;28;20061;-74
2023/03/12 08:34:36;;;;;;;42.90;27.80;;;;;;;5.95;100.00;100717.28;10416732;28;20041;-72
2023/03/12 08:39:36;;;;;;;38.95;26.85;;;;;;;6.08;100.00;100716.75;10416501;28;20191;-72
2023/03/12 08:44:37;;;;;;;38.70;24.15;;;;;;;6.27;100.00;100709.09;10416931;28;20063;-72
2023/03/12 08:49:37;;;;;;;38.38;22.60;;;;;;;6.53;100.00;100708.00;10418748;28;20030;-72
2023/03/12 08:54:38;;;;;;;32.72;22.00;;;;;;;6.83;100.00;100697.38;10416800;28;20041;-72
2023/03/12 08:59:38;;;;;;;24.00;15.75;;;;;;;7.21;100.00;100696.47;10415516;28;20179;-72
2023/03/12 09:04:38;;;;;;;19.67;9.35;;;;;;;7.63;100.00;100700.47;10414784;28;20523;-72
2023/03/12 09:09:39;;;;;;;22.58;10.68;;;;;;;7.99;100.00;100713.22;10415333;28;20057;-73
2023/03/12 09:14:39;;;;;;;36.35;9.38;;;;;;;8.20;100.00;100708.94;10415038;28;20033;-72
2023/03/12 09:19:40;;;;;;;24.17;9.80;;;;;;;8.46;100.00;100716.59;10416135;28;20040;-73
2023/03/12 09:24:40;;;;;;;23.02;7.70;;;;;;;8.55;100.00;100705.53;10413757;28;20057;-73
2023/03/12 09:29:40;;;;;;;12.88;7.47;;;;;;;8.61;100.00;100712.84;10414952;28;20029;-73
2023/03/12 09:34:41;;;;;;;21.48;8.45;;;;;;;8.74;100.00;100735.63;10414884;28;20033;-73
2023/03/12 09:39:41;;;;;;;22.15;7.97;;;;;;;8.83;100.00;100729.91;10414894;28;20484;-73
2023/03/12 09:44:43;;;;;;;39.80;8.57;;;;;;;9.05;100.00;100736.19;10415015;28;20038;-74
2023/03/12 09:50:24;;;;;;;27.45;7.85;;;;;;;8.96;100.00;100740.03;10412946;28;20026;-74
2023/03/12 09:55:24;;;;;;;34.33;8.13;;;;;;;9.10;100.00;100726.69;10413829;28;20061;-74
2023/03/12 10:00:33;;;;;;;36.28;8.80;;;;;;;9.07;100.00;100741.41;10396621;28;20107;-74
2023/03/12 10:05:54;;;;;;;23.83;7.05;;;;;;;9.19;100.00;100744.41;10415110;28;20030;-74
2023/03/12 10:11:01;;;;;;;36.67;8.88;;;;;;;9.16;100.00;100739.44;10413364;28;20029;-74
2023/03/12 10:16:24;;;;;;;20.40;6.80;;;;;;;9.24;100.00;100747.41;10405401;28;20106;-74
2023/03/12 10:21:40;;;;;;;43.33;8.82;;;;;;;9.38;100.00;100741.09;10406694;28;20141;-74
2023/03/12 10:26:43;;;;;;;22.05;8.20;;;;;;;9.38;100.00;100738.41;10421653;28;20135;-74
2023/03/12 10:31:54;;;;;;;15.95;7.47;;;;;;;9.24;100.00;100736.59;10403894;28;20057;-74
2023/03/12 10:37:01;;;;;;;26.58;6.25;;;;;;;9.10;100.00;100746.44;10421184;28;20076;-74
2023/03/12 10:42:15;;;;;;;26.92;8.30;;;;;;;9.27;100.00;100741.59;10388869;28;20083;-74
2023/03/12 10:47:25;;;;;;;15.65;5.65;;;;;;;9.24;100.00;100742.00;10405441;28;20484;-74
2023/03/12 10:52:25;;;;;;;41.78;9.73;;;;;;;9.05;100.00;100754.25;10422257;28;20025;-74
2023/03/12 10:57:37;;;;;;;31.08;8.60;;;;;;;9.16;100.00;100766.44;10421230;28;20118;-74
2023/03/12 11:02:42;;;;;;;23.13;6.78;;;;;;;9.31;100.00;100775.31;10420699;28;20119;-74
2023/03/12 11:07:43;;;;;;;38.38;8.63;;;;;;;9.37;100.00;100762.91;10419913;28;20045;-74
2023/03/12 11:13:27;;;;;;;26.88;8.15;;;;;;;9.51;100.00;100770.13;10418486;28;20056;-74
2023/03/12 11:18:28;;;;;;;28.65;8.90;;;;;;;9.73;100.00;100773.63;10408557;28;20467;-75
2023/03/12 11:23:29;;;;;;;19.40;9.13;;;;;;;9.89;100.00;100776.06;10417846;28;20037;-75
2023/03/12 11:28:37;;;;;;;41.75;9.02;;;;;;;9.95;100.00;100777.97;10417823;28;20057;-75
2023/03/12 11:33:37;;;;;;;19.42;7.00;;;;;;;9.94;100.00;100773.59;10418082;28;20426;-75
2023/03/12 11:38:46;;;;;;;32.88;7.93;;;;;;;10.26;100.00;100752.41;10418732;28;20033;-75
2023/03/12 11:44:05;;;;;;;27.08;9.00;;;;;;;10.43;100.00;100747.50;10417898;28;20037;-75
2023/03/12 11:49:14;;;;;;;32.55;8.43;;;;;;;10.64;100.00;100736.56;10418462;28;20040;-76
2023/03/12 11:54:24;;;;;;;43.17;9.85;;;;;;;10.57;100.00;100748.41;10418608;28;20469;-76
2023/03/12 11:59:33;;;;;;;30.30;9.45;;;;;;;10.91;100.00;100737.50;10417494;28;20492;-76
2023/03/12 12:04:59;;;;;;;32.95;8.32;;;;;;;11.28;100.00;100718.19;10418780;28;20025;-76
2023/03/12 12:10:26;;;;;;;33.47;7.68;;;;;;;11.61;100.00;100724.47;10417474;28;20112;-76
2023/03/12 12:15:45;;;;;;;31.85;8.50;;;;;;;11.60;100.00;100739.06;10385981;28;20041;-76
2023/03/12 12:21:02;;;;;;;18.42;8.93;;;;;;;12.03;100.00;100738.69;10417226;28;20165;-77
2023/03/12 12:26:06;;;;;;;;;;;;;;;12.22;100.00;100739.69;10400509;28;20408;-76
2023/03/12 12:31:31;;;;;;;49.65;10.32;;;;;;;12.00;100.00;100711.97;10416762;28;19913;-76
2023/03/12 12:36:33;;;;;;;36.20;10.82;;;;;;;12.03;100.00;100703.38;10416382;28;20021;-76
2023/03/12 12:41:36;;;;;;;26.88;8.07;;;;;;;12.15;100.00;100689.97;10398719;28;20033;-76
2023/03/12 12:47:04;;;;;;;22.85;9.45;;;;;;;11.70;100.00;100700.66;10415203;28;20037;-76
2023/03/12 12:52:07;;;;;;;21.55;7.63;;;;;;;11.56;100.00;100655.63;10414711;28;20391;-76
2023/03/12 12:57:19;;;;;;;39.90;9.25;;;;;;;11.32;100.00;100666.06;10415620;28;20029;-76
2023/03/12 13:02:25;;;;;;;19.58;6.75;;;;;;;11.33;100.00;100666.91;10415006;28;20110;-76
2023/03/12 13:07:25;;;;;;;35.87;8.80;;;;;;;11.39;100.00;100677.75;10397775;28;20160;-77
2023/03/12 13:12:29;;;;;;;24.88;8.15;;;;;;;11.64;100.00;100677.94;10415255;28;20398;-76
2023/03/12 13:17:34;;;;;;;44.00;8.40;;;;;;;12.17;100.00;100668.06;10415059;28;20105;-77
2023/03/12 13:22:42;;;;;;;23.10;8.52;;;;;;;12.05;100.00;100676.03;10382272;28;20402;-76
2023/03/12 13:27:43;;;;;;;25.42;6.82;;;;;;;12.01;100.00;100702.75;10398075;28;20187;-78
2023/03/12 13:32:47;;;;;;;35.05;10.23;;;;;;;12.53;100.00;100698.19;10414347;28;20049;-73
2023/03/12 13:37:47;;;;;;;22.55;6.47;;;;;;;13.22;100.00;100691.13;10415407;28;20091;-72
2023/03/12 13:43:01;;;;;;;14.70;7.93;;;;;;;13.54;100.00;100704.75;10414890;28;20041;-74
2023/03/12 13:48:02;;;;;;;21.75;7.68;;;;;;;13.35;100.00;100697.56;10412911;28;20274;-74
2023/03/12 13:53:06;;;;;;;31.13;7.60;;;;;;;12.97;100.00;100721.00;10413894;28;20026;-74
2023/03/12 13:58:15;;;;;;;30.33;9.55;;;;;;;12.66;100.00;100716.31;10412870;28;20152;-74
2023/03/12 14:03:19;;;;;;;29.10;7.43;;;;;;;12.56;100.00;100733.09;10396547;28;20484;-74
2023/03/12 14:08:42;;;;;;;23.58;6.88;;;;;;;12.49;100.00;100726.03;10412639;28;20022;-74
2023/03/12 14:14:01;;;;;;;14.52;7.55;;;;;;;11.93;100.00;100734.69;10413762;28;20081;-74
2023/03/12 14:19:02;;;;;;;28.58;7.50;;;;;;;12.21;100.00;100738.00;10414231;28;20041;-74
2023/03/12 14:24:03;;;;;;;26.10;7.80;;;;;;;12.16;100.00;100737.00;10395310;28;20091;-74
2023/03/12 14:29:17;;;;;;;17.70;6.07;;;;;;;12.04;100.00;100725.94;10414117;28;20045;-74
2023/03/12 14:34:21;;;;;;;27.23;7.97;;;;;;;11.56;100.00;100726.97;10412378;28;20038;-74
2023/03/12 14:39:49;;;;;;;37.00;10.13;;;;;;;11.44;100.00;100714.25;10398275;28;20033;-75
2023/03/12 14:45:08;;;;;;;23.25;9.63;;;;;;;11.57;100.00;100717.78;10411759;28;20135;-74
2023/03/12 14:50:28;;;;;;;34.50;8.57;;;;;;;11.48;100.00;100712.78;10411815;28;20532;-73
2023/03/12 14:55:29;;;;;;;40.00;10.48;;;;;;;11.20;100.00;100711.09;10413602;28;20036;-73
2023/03/12 15:00:29;;;;;;;37.28;10.45;;;;;;;11.12;100.00;100706.69;10419256;28;20116;-73
2023/03/12 15:05:30;;;;;;;25.75;9.73;;;;;;;11.02;100.00;100714.41;10418858;28;20033;-73
2023/03/12 15:10:30;;;;;;;21.35;7.90;;;;;;;11.06;100.00;100703.97;10419253;28;20025;-75
2023/03/12 15:15:41;;;;;;;32.78;8.88;;;;;;;10.94;100.00;100710.00;10418495;28;20120;-77
2023/03/12 15:20:41;;;;;;;41.83;10.18;;;;;;;10.91;100.00;100713.13;10401904;28;20032;-73
2023/03/12 15:25:43;;;;;;;40.13;8.25;;;;;;;10.82;100.00;100708.94;10400945;28;20080;-74
2023/03/12 15:30:44;;;;;;;40.05;10.90;;;;;;;10.76;100.00;100692.66;10417083;28;20477;-73
2023/03/12 15:36:06;;;;;;;32.17;8.80;;;;;;;10.66;100.00;100695.75;10419396;28;20044;-75
2023/03/12 15:41:08;;;;;;;29.20;7.85;;;;;;;10.58;100.00;100679.66;10418949;28;20496;-76
2023/03/12 15:46:09;;;;;;;33.30;9.43;;;;;;;10.65;100.00;100681.34;10402047;28;20029;-73
2023/03/12 15:51:16;;;;;;;43.97;11.13;;;;;;;10.68;100.00;100690.94;10400296;28;20029;-74
2023/03/12 15:56:16;;;;;;;28.90;8.48;;;;;;;10.62;100.00;100698.00;10402313;28;20095;-75
2023/03/12 16:01:17;;;;;;;39.15;10.38;;;;;;;10.43;100.00;100691.50;10417994;28;20037;-74
2023/03/12 16:06:19;;;;;;;40.50;13.68;;;;;;;10.30;100.00;100694.13;10415967;28;20037;-74
2023/03/12 16:11:24;;;;;;;67.65;14.85;;;;;;;10.18;100.00;100687.59;10400350;28;20458;-75
2023/03/12 16:16:25;;;;;;;50.08;11.48;;;;;;;9.94;100.00;100695.16;10400468;28;20132;-74
2023/03/12 16:21:25;;;;;;;40.22;12.38;;;;;;;9.71;100.00;100694.59;10416488;28;20124;-74
2023/03/12 16:26:26;;;;;;;55.33;13.27;;;;;;;9.60;100.00;100677.00;10417116;28;20115;-75
2023/03/12 16:31:26;;;;;;;47.42;13.05;;;;;;;9.40;100.00;100686.84;10417562;28;20121;-74
2023/03/12 16:36:27;;;;;;;40.03;11.63;;;;;;;9.24;100.00;100687.94;10418129;28;20088;-74
2023/03/12 16:41:27;;;;;;;45.22;10.63;;;;;;;9.19;100.00;100696.66;10414665;28;20104;-74
2023/03/12 16:46:30;;;;;;;41.22;7.72;;;;;;;9.23;100.00;100700.63;10415275;28;20033;-74
2023/03/12 16:51:30;;;;;;;35.10;8.40;;;;;;;9.28;100.00;100697.34;10415232;28;20453;-74
2023/03/12 16:56:31;;;;;;;16.58;6.43;;;;;;;9.35;100.00;100700.97;10416673;28;20037;-74
2023/03/12 17:01:31;;;;;;;21.45;5.35;;;;;;;9.44;100.00;100688.13;10414525;28;20030;-74
2023/03/12 17:06:32;;;;;;;18.08;4.50;;;;;;;9.39;100.00;100691.41;10416309;28;20106;-74
2023/03/12 17:11:32;;;;;;;21.35;4.72;;;;;;;9.35;100.00;100692.84;10416332;28;20040;-74
2023/03/12 17:16:33;;;;;;;20.20;4.88;;;;;;;9.34;100.00;100679.50;10397513;28;20045;-74
2023/03/12 17:21:33;;;;;;;11.55;3.75;;;;;;;9.27;100.00;100679.47;10413357;28;20033;-74
2023/03/12 17:26:33;;;;;;;9.30;2.80;;;;;;;9.35;100.00;100690.16;10414971;28;20053;-74
2023/03/12 17:31:36;;;;;;;11.50;4.05;;;;;;;9.30;100.00;100682.59;10413741;28;20378;-74
2023/03/12 17:36:36;;;;;;;8.02;4.15;;;;;;;9.24;100.00;100682.53;10414990;28;20461;-74
2023/03/12 17:41:38;;;;;;;11.32;3.60;;;;;;;9.24;100.00;100683.38;10414453;28;20112;-74
2023/03/12 17:46:38;;;;;;;6.85;3.78;;;;;;;9.28;100.00;100673.88;10414320;28;20064;-74
2023/03/12 17:51:38;;;;;;;16.55;4.32;;;;;;;9.32;100.00;100679.72;10414754;28;20033;-74
2023/03/12 17:56:39;;;;;;;13.95;4.75;;;;;;;9.42;100.00;100668.56;10414907;28;20041;-74
2023/03/12 18:01:39;;;;;;;20.90;5.85;;;;;;;9.42;100.00;100682.09;10414330;28;20040;-74
2023/03/12 18:06:40;;;;;;;21.38;4.45;;;;;;;9.43;100.00;100670.25;10412827;28;20389;-74
2023/03/12 18:11:40;;;;;;;21.60;6.80;;;;;;;9.41;100.00;100667.75;10415689;28;20034;-74
2023/03/12 18:16:40;;;;;;;19.52;4.90;;;;;;;9.40;100.00;100654.41;10413204;28;20068;-74
2023/03/12 18:21:41;;;;;;;26.67;6.32;;;;;;;9.40;100.00;100671.47;10412621;28;20109;-74
2023/03/12 18:26:41;;;;;;;17.80;5.28;;;;;;;9.38;100.00;100667.28;10413532;28;20080;-74
2023/03/12 18:31:42;;;;;;;21.77;6.30;;;;;;;9.38;100.00;100664.56;10413428;28;20124;-74
2023/03/12 18:36:42;;;;;;;15.38;5.03;;;;;;;9.37;100.00;100654.81;10420473;28;20457;-75
2023/03/12 18:41:43;;;;;;;16.98;4.00;;;;;;;9.33;100.00;100654.38;10420112;28;20101;-74
2023/03/12 18:46:43;;;;;;;23.25;5.05;;;;;;;9.37;100.00;100646.69;10420633;28;20041;-74
2023/03/12 18:51:43;;;;;;;8.95;4.32;;;;;;;9.41;100.00;100634.44;10420883;28;20033;-74
2023/03/12 18:56:44;;;;;;;25.02;5.85;;;;;;;9.48;100.00;100649.72;10420196;28;20128;-74
2023/03/12 19:01:44;;;;;;;17.02;4.10;;;;;;;9.48;100.00;100652.41;10419320;28;20065;-74
2023/03/12 19:06:45;;;;;;;7.32;4.47;;;;;;;9.52;100.00;100652.84;10420409;28;20033;-74
2023/03/12 19:11:46;;;;;;;29.58;6.03;;;;;;;9.50;100.00;100647.63;10419432;28;20164;-74
2023/03/12 19:16:47;;;;;;;8.88;4.00;;;;;;;9.44;100.00;100637.59;10419343;28;20400;-74
2023/03/12 19:21:47;;;;;;;20.08;4.82;;;;;;;9.49;100.00;100639.72;10403566;28;20037;-74
2023/03/12 19:26:48;;;;;;;25.70;5.57;;;;;;;9.43;100.00;100635.09;10419533;28;20103;-74
2023/03/12 19:31:48;;;;;;;14.35;5.32;;;;;;;9.35;100.00;100635.22;10419147;28;20030;-75
2023/03/12 19:36:49;;;;;;;25.35;8.10;;;;;;;9.27;100.00;100620.00;10420893;28;20037;-74
2023/03/12 19:41:49;;;;;;;25.40;6.35;;;;;;;9.28;100.00;100624.38;10419054;28;20109;-74
2023/03/12 19:46:49;;;;;;;26.00;7.35;;;;;;;9.26;100.00;100605.69;10417192;28;20104;-75
2023/03/12 19:51:50;;;;;;;18.90;7.07;;;;;;;9.30;100.00;100598.84;10416859;28;20168;-74
2023/03/12 19:56:50;;;;;;;20.83;7.90;;;;;;;9.23;100.00;100586.31;10418112;28;20036;-74
2023/03/12 20:01:51;;;;;;;25.35;7.18;;;;;;;9.24;100.00;100574.47;10419274;28;20029;-74
2023/03/12 20:06:52;;;;;;;25.90;7.22;;;;;;;9.26;100.00;100580.53;10418843;28;20130;-74
2023/03/12 20:11:52;;;;;;;9.90;4.88;;;;;;;9.13;100.00;100561.53;10416623;28;20033;-74
2023/03/12 20:16:53;;;;;;;20.98;6.68;;;;;;;9.00;100.00;100557.69;10417574;28;20033;-74
2023/03/12 20:21:53;;;;;;;12.70;4.75;;;;;;;8.83;100.00;100531.97;10417800;28;20064;-74
2023/03/12 20:26:54;;;;;;;31.67;7.20;;;;;;;8.77;100.00;100532.75;10418172;28;20053;-74
2023/03/12 20:31:54;;;;;;;18.42;6.28;;;;;;;8.79;100.00;100522.59;10417065;28;20111;-74
2023/03/12 20:36:55;;;;;;;21.48;6.65;;;;;;;8.86;100.00;100507.28;10417025;28;20065;-74
2023/03/12 20:41:56;;;;;;;23.83;5.35;;;;;;;8.80;100.00;100506.19;10415878;28;20120;-74
2023/03/12 20:46:56;;;;;;;26.00;6.88;;;;;;;8.92;100.00;100487.59;10415163;28;20064;-74
2023/03/12 20:51:57;;;;;;;16.63;5.30;;;;;;;8.98;100.00;100494.91;10416146;28;20124;-74
2023/03/12 20:56:57;;;;;;;19.10;5.15;;;;;;;9.02;100.00;100474.56;10416473;28;20495;-74
2023/03/12 21:01:58;;;;;;;19.67;7.25;;;;;;;9.02;100.00;100473.75;10416068;28;20049;-74
2023/03/12 21:06:58;;;;;;;29.38;6.25;;;;;;;9.04;100.00;100471.69;10416311;28;20121;-74
2023/03/12 21:11:58;;;;;;;13.00;6.25;;;;;;;9.06;100.00;100456.97;10415804;28;20116;-74
2023/03/12 21:16:59;;;;;;;18.13;6.70;;;;;;;9.03;100.00;100443.84;10414155;28;20576;-74
2023/03/12 21:21:59;;;;;;;13.27;5.07;;;;;;;8.99;100.00;100442.56;10398576;28;20087;-74
2023/03/12 21:27:00;;;;;;;25.65;7.38;;;;;;;9.11;100.00;100433.91;10413024;28;20121;-74
2023/03/12 21:32:00;;;;;;;26.20;7.97;;;;;;;9.11;100.00;100428.50;10397281;28;20472;-74
2023/03/12 21:37:01;;;;;;;19.48;5.70;;;;;;;9.12;100.00;100419.38;10414881;28;20538;-75
2023/03/12 21:42:01;;;;;;;21.65;5.38;;;;;;;9.14;100.00;100414.63;10413493;28;20034;-74
2023/03/12 21:47:03;;;;;;;17.08;5.55;;;;;;;9.01;100.00;100394.59;10414745;28;20041;-73
2023/03/12 21:52:03;;;;;;;14.65;5.97;;;;;;;8.90;100.00;100405.94;10413896;28;20083;-72
2023/03/12 21:57:04;;;;;;;30.38;7.38;;;;;;;8.77;100.00;100379.69;10414958;28;20042;-72
2023/03/12 22:02:04;;;;;;;29.98;7.85;;;;;;;8.71;100.00;100376.97;10414763;28;20068;-71
2023/03/12 22:07:04;;;;;;;26.73;7.88;;;;;;;8.74;100.00;100363.06;10416303;28;20041;-72
2023/03/12 22:12:05;;;;;;;30.75;7.75;;;;;;;8.72;100.00;100365.16;10422103;28;20437;-71
2023/03/12 22:17:05;;;;;;;32.00;8.00;;;;;;;8.72;100.00;100344.38;10404703;28;20132;-71
2023/03/12 22:22:06;;;;;;;21.77;7.25;;;;;;;8.76;100.00;100345.66;10423791;28;20089;-71
2023/03/12 22:27:06;;;;;;;35.42;8.50;;;;;;;8.76;100.00;100339.41;10422384;28;20064;-72
2023/03/12 22:32:06;;;;;;;7.80;4.95;;;;;;;8.67;100.00;100324.41;10421482;28;20030;-73
2023/03/12 22:37:07;;;;;;;21.80;8.60;;;;;;;8.74;100.00;100314.47;10422115;28;20404;-74
2023/03/12 22:42:08;;;;;;;15.70;6.43;;;;;;;8.68;100.00;100297.25;10427941;28;20033;-75
2023/03/12 22:47:08;;;;;;;9.05;5.38;;;;;;;8.65;100.00;100276.03;10426839;28;20021;-76
2023/03/12 22:52:08;;;;;;;45.28;8.27;;;;;;;8.74;100.00;100263.19;10429471;28;20037;-77